AU-0032 weather

Tumbarumba Airport
Tumbarumba, New South Wales, Australia

Public forecast

Using degrees Celsius for public forecast. Weather courtesy of forecast.io.

METAR (pilot weather report)

Closest report is Wagga Wagga City Airport, 41.3 nm (76.6 km) NNW. Retrieved 2019/03/25 05:00 UTC (26 minutes ago):

YSWG 250500Z 28015KT 9999 FEW040 SCT060 BKN090 20/11 Q1011

TAF (pilot weather forecast)

Forecast is more than 12 hours old.

Closest forecast is Wagga Wagga City Airport, 41.3 nm (76.6 km) NNW. Retrieved 2018/05/25 18:03 UTC (10 months ago):

TAF YSWG 251649Z 2518/2608 07008KT CAVOK